Time;durP1;ratioP1;P1;durP2;ratioP2;P2;SDS_P1;SDS_P2;PMS_P1;PMS_P2;Temp;Humidity;BMP_temperature;BMP_pressure;BME280_temperature;BME280_humidity;BME280_pressure;Samples;Min_cycle;Max_cycle;Signal;HPM_P1;HPM_P2
2022/06/13 00:02:48;;;;;;;5.03;3.50;;;;;;;;;;6250235;28;20229;-78
2022/06/13 00:05:49;;;;;;;9.50;3.50;;;;;;;;;;6249414;28;20107;-79
2022/06/13 00:08:53;;;;;;;5.97;3.22;;;;;;;;;;6251802;28;20495;-79
2022/06/13 00:11:54;;;;;;;6.63;3.40;;;;;;;;;;6250650;28;20068;-78
2022/06/13 00:14:56;;;;;;;5.85;3.63;;;;;;;;;;6252528;28;20343;-79
2022/06/13 00:17:58;;;;;;;6.47;3.90;;;;;;;;;;6249070;28;20046;-79
2022/06/13 00:20:59;;;;;;;4.60;3.55;;;;;;;;;;6254821;28;20046;-77
2022/06/13 00:24:07;;;;;;;6.10;3.50;;;;;;;;;;6253969;28;20121;-79
2022/06/13 00:27:09;;;;;;;7.50;3.70;;;;;;;;;;6246951;28;20100;-79
2022/06/13 00:30:11;;;;;;;6.10;3.60;;;;;;;;;;6252711;28;20057;-79
2022/06/13 00:33:13;;;;;;;5.47;3.20;;;;;;;;;;6256203;28;20048;-79
2022/06/13 00:36:15;;;;;;;5.57;3.67;;;;;;;;;;6254401;28;20210;-78
2022/06/13 00:39:18;;;;;;;4.40;3.33;;;;;;;;;;6256837;28;20056;-79
2022/06/13 00:42:22;;;;;;;;;;;;;;;;;;6252354;28;20045;-79
2022/06/13 00:45:24;;;;;;;;;;;;;;;;;;6252541;28;20152;-79
2022/06/13 00:48:29;;;;;;;5.50;3.25;;;;;;;;;;6253008;28;19917;-79
2022/06/13 00:51:33;;;;;;;8.00;3.55;;;;;;;;;;6255894;28;20108;-77
2022/06/13 00:54:37;;;;;;;4.93;3.50;;;;;;;;;;6254013;28;20068;-77
2022/06/13 00:57:38;;;;;;;6.72;3.42;;;;;;;;;;6251493;28;20058;-79
2022/06/13 01:00:41;;;;;;;4.53;3.20;;;;;;;;;;6252564;28;20045;-77
2022/06/13 01:03:43;;;;;;;;;;;;;;;;;;6257748;28;20046;-79
2022/06/13 01:06:47;;;;;;;8.30;3.67;;;;;;;;;;6253400;28;19947;-79
2022/06/13 01:13:11;;;;;;;4.68;2.78;;;;;;;;;;6252440;28;20344;-78
2022/06/13 01:16:23;;;;;;;4.47;3.17;;;;;;;;;;6250423;28;20415;-78
2022/06/13 01:20:10;;;;;;;4.95;2.80;;;;;;;;;;6255197;28;20068;-77
2022/06/13 01:23:38;;;;;;;5.18;3.20;;;;;;;;;;6245048;28;20620;-80
2022/06/13 01:27:03;;;;;;;8.98;2.78;;;;;;;;;;6257029;28;20042;-77
2022/06/13 01:30:38;;;;;;;5.78;3.50;;;;;;;;;;6252534;28;20057;-79
2022/06/13 01:33:50;;;;;;;4.78;3.08;;;;;;;;;;6240286;28;20107;-78
2022/06/13 01:36:58;;;;;;;6.97;3.03;;;;;;;;;;6253116;28;20141;-78
2022/06/13 01:40:07;;;;;;;9.35;3.33;;;;;;;;;;6253468;28;20610;-78
2022/06/13 01:43:14;;;;;;;5.15;3.35;;;;;;;;;;6251294;28;20052;-79
2022/06/13 01:46:21;;;;;;;8.10;3.05;;;;;;;;;;6251733;28;20336;-79
2022/06/13 01:49:27;;;;;;;5.15;2.67;;;;;;;;;;6252597;28;20053;-79
2022/06/13 01:52:36;;;;;;;9.98;3.40;;;;;;;;;;6254040;28;20042;-78
2022/06/13 01:55:44;;;;;;;7.93;3.60;;;;;;;;;;6254441;28;20053;-78
2022/06/13 01:58:49;;;;;;;9.80;3.13;;;;;;;;;;6250292;28;20228;-78
2022/06/13 02:01:55;;;;;;;7.40;3.40;;;;;;;;;;6252777;28;20045;-78
2022/06/13 02:05:01;;;;;;;6.10;3.08;;;;;;;;;;6254751;28;20049;-78
2022/06/13 02:08:08;;;;;;;7.63;3.00;;;;;;;;;;6252325;28;20332;-77
2022/06/13 02:11:14;;;;;;;8.07;3.25;;;;;;;;;;6252590;28;20049;-77
2022/06/13 02:14:19;;;;;;;6.20;3.40;;;;;;;;;;6253417;28;20045;-76
2022/06/13 02:17:23;;;;;;;4.75;2.90;;;;;;;;;;6249401;28;20053;-78
2022/06/13 02:20:29;;;;;;;6.75;3.38;;;;;;;;;;6254528;28;20337;-78
2022/06/13 02:23:33;;;;;;;4.25;3.20;;;;;;;;;;6254808;28;20049;-78
2022/06/13 02:26:36;;;;;;;5.00;3.10;;;;;;;;;;6253096;28;20053;-77
2022/06/13 02:29:42;;;;;;;6.35;2.92;;;;;;;;;;6251877;28;20061;-79
2022/06/13 02:32:48;;;;;;;7.32;3.50;;;;;;;;;;6248950;28;20076;-80
2022/06/13 02:35:55;;;;;;;5.60;3.28;;;;;;;;;;6254457;28;20058;-78
2022/06/13 02:39:00;;;;;;;5.60;3.55;;;;;;;;;;6255794;28;20075;-79
2022/06/13 02:42:05;;;;;;;6.35;3.50;;;;;;;;;;6248934;28;20049;-79
2022/06/13 02:45:11;;;;;;;7.13;3.33;;;;;;;;;;6246770;28;20056;-79
2022/06/13 02:48:15;;;;;;;5.85;3.53;;;;;;;;;;6252133;28;20092;-78
2022/06/13 02:51:22;;;;;;;6.03;3.70;;;;;;;;;;6253771;28;20057;-78
2022/06/13 02:54:30;;;;;;;5.28;3.17;;;;;;;;;;6251514;28;20057;-78
2022/06/13 02:57:38;;;;;;;3.80;3.13;;;;;;;;;;6250466;28;20045;-78
2022/06/13 03:00:52;;;;;;;4.25;3.08;;;;;;;;;;6251103;28;20057;-78
2022/06/13 03:03:58;;;;;;;5.20;2.70;;;;;;;;;;6253829;28;20049;-78
2022/06/13 03:07:08;;;;;;;4.45;3.25;;;;;;;;;;6247895;28;20085;-78
2022/06/13 03:10:13;;;;;;;4.28;3.10;;;;;;;;;;6250481;28;20064;-78
2022/06/13 03:13:22;;;;;;;5.18;3.53;;;;;;;;;;6250766;28;20068;-78
2022/06/13 03:16:27;;;;;;;9.18;3.53;;;;;;;;;;6253673;28;20081;-78
2022/06/13 03:19:36;;;;;;;6.25;3.50;;;;;;;;;;6246817;28;20050;-77
2022/06/13 03:22:46;;;;;;;3.88;3.00;;;;;;;;;;6249820;28;20052;-78
2022/06/13 03:25:50;;;;;;;4.97;3.30;;;;;;;;;;6253795;28;20087;-77
2022/06/13 03:28:55;;;;;;;5.53;2.97;;;;;;;;;;6248134;28;20357;-77
2022/06/13 03:31:59;;;;;;;12.65;3.90;;;;;;;;;;6250200;28;20045;-77
2022/06/13 03:35:03;;;;;;;7.13;3.00;;;;;;;;;;6248484;28;20049;-79
2022/06/13 03:38:09;;;;;;;5.50;3.05;;;;;;;;;;6252140;28;20139;-79
2022/06/13 03:41:13;;;;;;;8.40;2.83;;;;;;;;;;6249090;28;20057;-78
2022/06/13 03:44:18;;;;;;;7.43;2.88;;;;;;;;;;6247081;28;20135;-78
2022/06/13 03:47:23;;;;;;;5.57;3.10;;;;;;;;;;6249038;28;20062;-78
2022/06/13 03:50:28;;;;;;;8.13;3.28;;;;;;;;;;6251582;28;20065;-78
2022/06/13 03:53:37;;;;;;;10.98;4.03;;;;;;;;;;6248244;28;20052;-78
2022/06/13 03:56:44;;;;;;;15.43;3.70;;;;;;;;;;6250621;28;20332;-78
2022/06/13 03:59:48;;;;;;;11.98;3.10;;;;;;;;;;6249917;28;20056;-79
2022/06/13 04:02:50;;;;;;;4.40;2.80;;;;;;;;;;6252231;28;20252;-79
2022/06/13 04:05:57;;;;;;;6.87;3.27;;;;;;;;;;6251322;28;20052;-79
2022/06/13 04:09:03;;;;;;;7.93;3.25;;;;;;;;;;6252708;28;20352;-78
2022/06/13 04:12:24;;;;;;;11.48;3.03;;;;;;;;;;6249669;28;20062;-79
2022/06/13 04:15:54;;;;;;;7.47;3.03;;;;;;;;;;6245156;28;20344;-77
2022/06/13 04:19:09;;;;;;;3.97;2.88;;;;;;;;;;6233271;28;20064;-77
2022/06/13 04:22:20;;;;;;;9.30;3.45;;;;;;;;;;6250589;28;20121;-77
2022/06/13 04:25:52;;;;;;;6.55;3.25;;;;;;;;;;6244002;28;20091;-78
2022/06/13 04:29:18;;;;;;;9.20;3.33;;;;;;;;;;6250176;28;20061;-79
2022/06/13 04:32:24;;;;;;;7.57;3.05;;;;;;;;;;6248869;28;20095;-79
2022/06/13 04:35:33;;;;;;;7.10;3.08;;;;;;;;;;6250239;28;20324;-79
2022/06/13 04:38:35;;;;;;;6.15;3.00;;;;;;;;;;6252471;28;20065;-75
2022/06/13 04:41:45;;;;;;;6.95;2.78;;;;;;;;;;6245930;28;20411;-77
2022/06/13 04:44:49;;;;;;;4.43;2.95;;;;;;;;;;6251047;28;20045;-78
2022/06/13 04:47:51;;;;;;;7.82;3.30;;;;;;;;;;6251312;28;20061;-79
2022/06/13 04:50:56;;;;;;;7.70;2.80;;;;;;;;;;6249799;28;20345;-79
2022/06/13 04:54:02;;;;;;;4.25;3.17;;;;;;;;;;6247437;28;20300;-79
2022/06/13 04:57:04;;;;;;;7.85;3.80;;;;;;;;;;6248888;28;20103;-80
2022/06/13 05:00:10;;;;;;;7.80;3.70;;;;;;;;;;6251099;28;20113;-79
2022/06/13 05:03:20;;;;;;;6.13;2.97;;;;;;;;;;6248741;28;20049;-78
2022/06/13 05:06:26;;;;;;;28.40;4.25;;;;;;;;;;6253986;28;20056;-78
2022/06/13 05:09:30;;;;;;;7.00;3.95;;;;;;;;;;6254173;28;20056;-77
2022/06/13 05:12:36;;;;;;;8.07;3.47;;;;;;;;;;6249297;28;20061;-77
2022/06/13 05:15:39;;;;;;;6.60;3.20;;;;;;;;;;6253122;28;20245;-79
2022/06/13 05:18:48;;;;;;;;;;;;;;;;;;6254389;28;20049;-78
2022/06/13 05:21:58;;;;;;;4.57;3.30;;;;;;;;;;6251376;28;19924;-78
2022/06/13 05:25:24;;;;;;;4.70;3.40;;;;;;;;;;6755427;22;20028;-82
2022/06/13 05:28:29;;;;;;;3.58;2.92;;;;;;;;;;6324373;28;20052;-80
2022/06/13 05:31:32;;;;;;;4.50;2.97;;;;;;;;;;6325640;28;20116;-80
2022/06/13 05:34:34;;;;;;;;;;;;;;;;;;6326077;28;20048;-79
2022/06/13 05:37:36;;;;;;;10.10;3.63;;;;;;;;;;6326780;28;19920;-79
2022/06/13 05:40:38;;;;;;;6.63;2.58;;;;;;;;;;6324776;28;20059;-79
2022/06/13 05:43:40;;;;;;;4.13;2.33;;;;;;;;;;6330651;28;20052;-79
2022/06/13 05:46:43;;;;;;;6.50;3.00;;;;;;;;;;6325402;28;20060;-79
2022/06/13 05:49:44;;;;;;;2.85;2.03;;;;;;;;;;6327970;28;20055;-79
2022/06/13 05:52:46;;;;;;;5.63;2.67;;;;;;;;;;6324149;28;20350;-79
2022/06/13 05:55:49;;;;;;;3.60;2.03;;;;;;;;;;6326418;28;20110;-80
2022/06/13 05:58:51;;;;;;;3.05;1.73;;;;;;;;;;6323083;28;20392;-79
2022/06/13 06:01:54;;;;;;;3.67;2.10;;;;;;;;;;6324417;28;20052;-78
2022/06/13 06:04:55;;;;;;;6.00;2.55;;;;;;;;;;6329362;28;20081;-80
2022/06/13 06:07:57;;;;;;;4.80;2.10;;;;;;;;;;6322725;28;20056;-79
2022/06/13 06:11:00;;;;;;;3.13;1.65;;;;;;;;;;6326021;28;20055;-80
2022/06/13 06:14:01;;;;;;;3.95;1.92;;;;;;;;;;6322608;28;20044;-79
2022/06/13 06:17:05;;;;;;;5.22;2.10;;;;;;;;;;6325007;28;20423;-77
2022/06/13 06:20:07;;;;;;;2.58;2.00;;;;;;;;;;6327715;28;20342;-79
2022/06/13 06:23:09;;;;;;;4.43;2.23;;;;;;;;;;6322535;28;20052;-76
2022/06/13 06:26:12;;;;;;;2.42;1.85;;;;;;;;;;6322451;28;20078;-76
2022/06/13 06:29:14;;;;;;;4.47;1.85;;;;;;;;;;6323405;28;20048;-78
2022/06/13 06:32:17;;;;;;;2.85;1.60;;;;;;;;;;6326242;28;20048;-79
2022/06/13 06:35:18;;;;;;;;;;;;;;;;;;6322856;28;20039;-77
2022/06/13 06:38:21;;;;;;;6.30;1.73;;;;;;;;;;6326876;28;20415;-81
2022/06/13 06:41:23;;;;;;;4.55;1.90;;;;;;;;;;6325265;28;20113;-77
2022/06/13 06:44:24;;;;;;;3.33;2.28;;;;;;;;;;6322481;28;20231;-78
2022/06/13 06:47:27;;;;;;;4.25;2.50;;;;;;;;;;6325078;28;20300;-79
2022/06/13 06:50:31;;;;;;;;;;;;;;;;;;6329876;28;20059;-79
2022/06/13 06:59:53;;;;;;;7.65;2.75;;;;;;;;;;6326477;28;20191;-77
2022/06/13 07:00:14;;;;;;;4.18;2.33;;;;;;;;;;6325192;28;20048;-79
2022/06/13 07:03:18;;;;;;;3.55;2.20;;;;;;;;;;6324537;28;20049;-76
2022/06/13 07:06:20;;;;;;;8.60;2.28;;;;;;;;;;6326909;28;20051;-77
2022/06/13 07:09:21;;;;;;;4.25;2.72;;;;;;;;;;6325706;28;20440;-78
2022/06/13 07:12:23;;;;;;;3.63;2.28;;;;;;;;;;6327084;28;20056;-79
2022/06/13 07:15:25;;;;;;;3.40;2.20;;;;;;;;;;6327287;28;20052;-79
2022/06/13 07:18:28;;;;;;;6.22;2.25;;;;;;;;;;6324591;28;20246;-80
2022/06/13 07:21:29;;;;;;;;;;;;;;;;;;6323052;28;20044;-79
2022/06/13 07:24:32;;;;;;;3.33;2.13;;;;;;;;;;6326538;28;19916;-81
2022/06/13 07:27:33;;;;;;;4.13;1.98;;;;;;;;;;6325750;28;20052;-77
2022/06/13 07:30:36;;;;;;;5.90;2.30;;;;;;;;;;6325291;28;20299;-78
2022/06/13 07:33:39;;;;;;;6.50;2.28;;;;;;;;;;6325919;28;20048;-78
2022/06/13 07:36:42;;;;;;;3.83;2.33;;;;;;;;;;6322611;28;20052;-78
2022/06/13 07:39:43;;;;;;;9.77;2.40;;;;;;;;;;6326313;28;20048;-77
2022/06/13 07:42:48;;;;;;;7.47;2.30;;;;;;;;;;6323708;28;20056;-78
2022/06/13 07:45:51;;;;;;;4.00;2.42;;;;;;;;;;6323074;28;20052;-79
2022/06/13 07:48:54;;;;;;;;;;;;;;;;;;6326074;28;20322;-81
2022/06/13 07:51:56;;;;;;;4.03;2.40;;;;;;;;;;6325983;28;19948;-79
2022/06/13 07:54:57;;;;;;;3.97;2.65;;;;;;;;;;6323441;28;20102;-78
2022/06/13 07:57:59;;;;;;;2.85;2.35;;;;;;;;;;6326837;28;20056;-80
2022/06/13 08:01:01;;;;;;;4.45;2.42;;;;;;;;;;6326453;28;20241;-76
2022/06/13 08:04:05;;;;;;;5.70;2.47;;;;;;;;;;6327206;28;20381;-76
2022/06/13 08:07:07;;;;;;;3.15;2.53;;;;;;;;;;6325933;28;20462;-77
2022/06/13 08:10:09;;;;;;;3.42;2.30;;;;;;;;;;6327028;28;20106;-78
2022/06/13 08:13:11;;;;;;;;;;;;;;;;;;6326040;28;20044;-78
2022/06/13 08:16:13;;;;;;;4.13;2.45;;;;;;;;;;6324164;28;19985;-77
2022/06/13 08:19:16;;;;;;;4.40;2.42;;;;;;;;;;6324620;28;20093;-78
2022/06/13 08:22:18;;;;;;;4.55;2.40;;;;;;;;;;6324529;28;20276;-79
2022/06/13 08:25:25;;;;;;;7.95;2.75;;;;;;;;;;6322999;28;20056;-78
2022/06/13 08:28:27;;;;;;;2.97;2.13;;;;;;;;;;6321895;28;20056;-77
2022/06/13 08:31:29;;;;;;;3.17;2.22;;;;;;;;;;6325502;28;20062;-78
2022/06/13 08:34:32;;;;;;;3.97;2.60;;;;;;;;;;6323865;28;20177;-77
2022/06/13 08:37:34;;;;;;;2.72;2.50;;;;;;;;;;6326653;28;20048;-75
2022/06/13 08:40:41;;;;;;;6.70;3.40;;;;;;;;;;6326264;28;20040;-78
2022/06/13 08:44:00;;;;;;;11.10;3.58;;;;;;;;;;6329796;28;20086;-78
2022/06/13 08:47:07;;;;;;;3.95;2.92;;;;;;;;;;6326334;28;20060;-78
2022/06/13 08:50:19;;;;;;;5.70;2.72;;;;;;;;;;6329072;28;20036;-78
2022/06/13 08:53:24;;;;;;;3.97;3.00;;;;;;;;;;6331572;28;20276;-77
2022/06/13 08:56:29;;;;;;;7.50;3.35;;;;;;;;;;6330202;28;20047;-77
2022/06/13 08:59:34;;;;;;;6.63;3.17;;;;;;;;;;6328934;28;20044;-78
2022/06/13 09:02:40;;;;;;;10.95;2.88;;;;;;;;;;6325877;28;20052;-78
2022/06/13 09:05:50;;;;;;;5.57;3.00;;;;;;;;;;6330601;28;20068;-78
2022/06/13 09:08:55;;;;;;;8.48;3.80;;;;;;;;;;6329281;28;20039;-78
2022/06/13 09:11:59;;;;;;;7.25;3.55;;;;;;;;;;6326481;28;20257;-77
2022/06/13 09:15:04;;;;;;;8.60;4.82;;;;;;;;;;6325911;28;20044;-79
2022/06/13 09:18:11;;;;;;;5.63;4.45;;;;;;;;;;6331509;28;20276;-78
2022/06/13 09:21:20;;;;;;;10.38;4.25;;;;;;;;;;6329558;28;20041;-79
2022/06/13 09:24:27;;;;;;;6.07;3.50;;;;;;;;;;6328687;28;20059;-80
2022/06/13 09:27:31;;;;;;;6.47;3.90;;;;;;;;;;6326912;28;20122;-79
2022/06/13 09:30:34;;;;;;;7.15;3.22;;;;;;;;;;6330637;28;20058;-77
2022/06/13 09:33:39;;;;;;;6.78;3.45;;;;;;;;;;6329338;28;20048;-80
2022/06/13 09:36:46;;;;;;;5.65;3.70;;;;;;;;;;6323333;28;20128;-79
2022/06/13 09:39:48;;;;;;;7.03;3.25;;;;;;;;;;6329279;28;20048;-79
2022/06/13 09:43:04;;;;;;;5.13;3.50;;;;;;;;;;6325282;28;20050;-81
2022/06/13 09:46:11;;;;;;;6.85;3.78;;;;;;;;;;6328735;27;20046;-79
2022/06/13 09:49:18;;;;;;;4.63;3.35;;;;;;;;;;6327334;28;20051;-79
2022/06/13 09:52:28;;;;;;;4.97;3.80;;;;;;;;;;6329208;28;20056;-79
2022/06/13 09:55:34;;;;;;;7.28;3.25;;;;;;;;;;6330435;28;20137;-78
2022/06/13 09:58:51;;;;;;;4.78;3.13;;;;;;;;;;6328558;28;20040;-81
2022/06/13 10:01:58;;;;;;;6.25;4.18;;;;;;;;;;6330033;28;20073;-76
2022/06/13 10:05:05;;;;;;;6.05;3.13;;;;;;;;;;6329133;28;20055;-74
2022/06/13 10:08:21;;;;;;;6.00;4.28;;;;;;;;;;6328997;28;20391;-75
2022/06/13 10:11:30;;;;;;;8.20;4.63;;;;;;;;;;6322071;28;20048;-75
2022/06/13 10:14:44;;;;;;;4.50;3.20;;;;;;;;;;6326631;28;20055;-75
2022/06/13 10:18:02;;;;;;;4.25;3.22;;;;;;;;;;6327045;28;20098;-75
2022/06/13 10:21:11;;;;;;;5.50;3.30;;;;;;;;;;6328115;28;20055;-78
2022/06/13 10:24:24;;;;;;;6.30;2.95;;;;;;;;;;6329708;28;20056;-79
2022/06/13 10:27:40;;;;;;;5.60;3.40;;;;;;;;;;6322398;28;20061;-79
2022/06/13 10:30:47;;;;;;;8.73;3.80;;;;;;;;;;6322778;28;20044;-77
2022/06/13 10:33:56;;;;;;;6.07;4.10;;;;;;;;;;6321750;28;20277;-78
2022/06/13 10:37:09;;;;;;;8.45;3.83;;;;;;;;;;6325323;28;20380;-79
2022/06/13 10:40:13;;;;;;;4.63;3.00;;;;;;;;;;6322581;28;20056;-77
2022/06/13 10:43:15;;;;;;;5.25;3.30;;;;;;;;;;6321126;28;20063;-77
2022/06/13 10:46:16;;;;;;;;;;;;;;;;;;6324833;28;20226;-78
2022/06/13 10:49:23;;;;;;;5.25;3.75;;;;;;;;;;6322644;28;19924;-79
2022/06/13 10:52:27;;;;;;;5.65;4.20;;;;;;;;;;6320697;28;20316;-80
2022/06/13 10:55:36;;;;;;;14.38;8.77;;;;;;;;;;6322584;28;20060;-80
2022/06/13 10:58:41;;;;;;;7.60;5.75;;;;;;;;;;6326050;28;20085;-77
2022/06/13 11:01:53;;;;;;;8.20;6.97;;;;;;;;;;6325627;28;20060;-78
2022/06/13 11:05:06;;;;;;;15.07;11.93;;;;;;;;;;6317826;28;20036;-78
2022/06/13 11:08:12;;;;;;;7.80;5.20;;;;;;;;;;6325358;28;20104;-77
2022/06/13 11:11:29;;;;;;;14.90;10.15;;;;;;;;;;6323596;28;20115;-79
2022/06/13 11:14:35;;;;;;;18.60;14.98;;;;;;;;;;6323503;28;20048;-78
2022/06/13 11:24:42;;;;;;;5.85;4.80;;;;;;;;;;6323425;28;20067;-77
2022/06/13 11:27:47;;;;;;;6.40;3.13;;;;;;;;;;6320852;28;20204;-77
2022/06/13 11:30:50;;;;;;;6.22;3.50;;;;;;;;;;6318861;28;20090;-76
2022/06/13 11:33:51;;;;;;;7.45;3.28;;;;;;;;;;6323676;28;20341;-76
2022/06/13 11:37:02;;;;;;;4.20;3.20;;;;;;;;;;6317925;28;20047;-80
2022/06/13 11:40:16;;;;;;;5.85;3.67;;;;;;;;;;6324432;28;20076;-77
2022/06/13 11:43:21;;;;;;;4.85;3.15;;;;;;;;;;6322896;28;20090;-80
2022/06/13 11:46:35;;;;;;;4.10;3.05;;;;;;;;;;6323101;28;20114;-79
2022/06/13 11:49:39;;;;;;;4.55;2.78;;;;;;;;;;6324583;28;20323;-79
2022/06/13 11:56:01;;;;;;;6.47;2.90;;;;;;;;;;6324365;28;20036;-80
2022/06/13 11:59:05;;;;;;;;;;;;;;;;;;6321943;28;20268;-80
2022/06/13 12:02:17;;;;;;;4.18;2.28;;;;;;;;;;6320688;28;19955;-79
2022/06/13 12:05:23;;;;;;;5.18;2.55;;;;;;;;;;6323419;28;20334;-80
2022/06/13 12:08:28;;;;;;;5.43;2.35;;;;;;;;;;6319710;28;20064;-78
2022/06/13 12:11:30;;;;;;;3.67;2.60;;;;;;;;;;6322124;28;20043;-77
2022/06/13 12:14:35;;;;;;;;;;;;;;;;;;6322104;28;20341;-76
2022/06/13 12:17:40;;;;;;;5.35;2.40;;;;;;;;;;6324247;28;19920;-75
2022/06/13 12:20:48;;;;;;;4.35;2.10;;;;;;;;;;6320672;28;20044;-72
2022/06/13 12:23:54;;;;;;;2.85;1.90;;;;;;;;;;6317062;28;20323;-76
2022/06/13 12:27:02;;;;;;;4.95;2.30;;;;;;;;;;6314107;28;20059;-75
2022/06/13 12:30:31;;;;;;;2.78;2.03;;;;;;;;;;6319960;28;20044;-76
2022/06/13 12:33:42;;;;;;;4.97;2.20;;;;;;;;;;6316141;28;20045;-76
2022/06/13 12:36:54;;;;;;;3.55;2.03;;;;;;;;;;6323464;28;20040;-76
2022/06/13 12:40:03;;;;;;;5.47;2.03;;;;;;;;;;6311405;28;20119;-77
2022/06/13 12:43:18;;;;;;;8.75;2.30;;;;;;;;;;6317050;28;20216;-79
2022/06/13 12:46:35;;;;;;;3.45;2.00;;;;;;;;;;6319681;28;20239;-78
2022/06/13 12:49:55;;;;;;;3.92;1.90;;;;;;;;;;6320609;28;20052;-79
2022/06/13 12:53:06;;;;;;;3.60;1.60;;;;;;;;;;6320852;28;20322;-78
2022/06/13 12:56:10;;;;;;;2.63;2.03;;;;;;;;;;6318084;28;20052;-78
2022/06/13 12:59:21;;;;;;;4.90;2.45;;;;;;;;;;6314127;28;20056;-78
2022/06/13 13:02:33;;;;;;;5.25;1.65;;;;;;;;;;6314475;28;20064;-75
2022/06/13 13:05:41;;;;;;;3.22;2.00;;;;;;;;;;6319256;28;20052;-78
2022/06/13 13:08:54;;;;;;;2.38;1.77;;;;;;;;;;6314363;28;20051;-79
2022/06/13 13:12:21;;;;;;;1.75;1.65;;;;;;;;;;6311412;28;20098;-76
2022/06/13 13:15:29;;;;;;;5.40;1.70;;;;;;;;;;6314208;28;20251;-79
2022/06/13 13:18:41;;;;;;;2.90;2.08;;;;;;;;;;6319654;28;20094;-77
2022/06/13 13:21:50;;;;;;;3.90;1.88;;;;;;;;;;6320300;28;20052;-75
2022/06/13 13:24:59;;;;;;;20.25;14.70;;;;;;;;;;6307662;28;20074;-77
2022/06/13 13:28:13;;;;;;;15.13;9.27;;;;;;;;;;6323590;28;20120;-79
2022/06/13 13:31:19;;;;;;;55.45;46.85;;;;;;;;;;6327923;28;20035;-76
2022/06/13 13:34:37;;;;;;;15.43;11.90;;;;;;;;;;6323995;28;20089;-75
2022/06/13 13:37:40;;;;;;;5.32;4.15;;;;;;;;;;6325884;28;20268;-76
2022/06/13 13:40:46;;;;;;;9.68;5.93;;;;;;;;;;6324844;28;20273;-76
2022/06/13 13:43:51;;;;;;;10.93;7.00;;;;;;;;;;6327340;28;20101;-76
2022/06/13 13:46:59;;;;;;;23.00;17.27;;;;;;;;;;6325422;28;20047;-76
2022/06/13 13:50:06;;;;;;;107.88;96.15;;;;;;;;;;6323509;28;20388;-77
2022/06/13 13:53:11;;;;;;;5.00;4.47;;;;;;;;;;6318769;28;20269;-73
2022/06/13 13:56:21;;;;;;;5.43;2.20;;;;;;;;;;6324623;28;20039;-76
2022/06/13 13:59:25;;;;;;;4.47;2.13;;;;;;;;;;6326315;28;20067;-76
2022/06/13 14:02:40;;;;;;;2.47;1.63;;;;;;;;;;6325332;28;20056;-75
2022/06/13 14:05:47;;;;;;;4.07;1.95;;;;;;;;;;6328650;28;20052;-76
2022/06/13 14:08:49;;;;;;;1.83;1.58;;;;;;;;;;6325441;28;20331;-76
2022/06/13 14:12:08;;;;;;;3.90;1.70;;;;;;;;;;6326772;28;20048;-78
2022/06/13 14:15:18;;;;;;;3.00;1.55;;;;;;;;;;6325989;28;20074;-78
2022/06/13 14:18:21;;;;;;;4.43;1.65;;;;;;;;;;6328269;28;20070;-75
2022/06/13 14:21:40;;;;;;;4.00;1.77;;;;;;;;;;6327426;28;20269;-75
2022/06/13 14:24:48;;;;;;;2.55;1.48;;;;;;;;;;6325079;28;20062;-74
2022/06/13 14:27:52;;;;;;;3.42;1.73;;;;;;;;;;6324113;28;20060;-75
2022/06/13 14:31:05;;;;;;;2.33;2.00;;;;;;;;;;6319773;28;20089;-79
2022/06/13 14:37:28;;;;;;;6.95;1.90;;;;;;;;;;6324606;28;19924;-78
2022/06/13 14:40:34;;;;;;;5.55;1.95;;;;;;;;;;6328386;28;20105;-78
2022/06/13 14:43:42;;;;;;;5.68;1.80;;;;;;;;;;6329151;28;20067;-75
2022/06/13 14:47:02;;;;;;;5.30;1.80;;;;;;;;;;6324069;28;20048;-79
2022/06/13 14:50:04;;;;;;;4.40;1.90;;;;;;;;;;6327364;28;20226;-79
2022/06/13 14:53:38;;;;;;;1.95;1.80;;;;;;;;;;6325406;28;20048;-76
2022/06/13 14:56:44;;;;;;;5.55;1.90;;;;;;;;;;6311359;28;20060;-78
2022/06/13 15:00:09;;;;;;;2.00;1.80;;;;;;;;;;6327338;28;20056;-78
2022/06/13 15:03:15;;;;;;;4.65;2.17;;;;;;;;;;6327072;28;20067;-79
2022/06/13 15:06:20;;;;;;;6.53;2.05;;;;;;;;;;6325239;28;20064;-79
2022/06/13 15:09:25;;;;;;;3.22;1.90;;;;;;;;;;6324933;28;20083;-79
2022/06/13 15:12:31;;;;;;;6.95;2.30;;;;;;;;;;6324321;28;20330;-79
2022/06/13 15:15:35;;;;;;;3.38;2.00;;;;;;;;;;6322300;28;20068;-78
2022/06/13 15:18:40;;;;;;;4.07;1.95;;;;;;;;;;6324913;28;20081;-78
2022/06/13 15:21:45;;;;;;;17.02;13.20;;;;;;;;;;6328218;28;20096;-77
2022/06/13 15:24:51;;;;;;;12.90;10.80;;;;;;;;;;6320736;28;20327;-78
2022/06/13 15:27:57;;;;;;;6.88;6.03;;;;;;;;;;6320337;28;20043;-77
2022/06/13 15:31:06;;;;;;;3.08;2.05;;;;;;;;;;6324531;28;20115;-79
2022/06/13 15:34:08;;;;;;;3.65;2.60;;;;;;;;;;6322434;28;20237;-79
2022/06/13 15:37:09;;;;;;;4.57;2.10;;;;;;;;;;6324966;28;20335;-79
2022/06/13 15:40:21;;;;;;;3.22;2.17;;;;;;;;;;6323952;28;20323;-75
2022/06/13 15:43:35;;;;;;;2.45;1.75;;;;;;;;;;6327912;28;20056;-76
2022/06/13 15:46:46;;;;;;;4.57;1.70;;;;;;;;;;6325378;28;20040;-76
2022/06/13 15:49:48;;;;;;;6.10;1.92;;;;;;;;;;6324605;28;20111;-76
2022/06/13 15:52:51;;;;;;;188.77;142.43;;;;;;;;;;6324901;28;20105;-75
2022/06/13 15:55:53;;;;;;;19.73;12.80;;;;;;;;;;6323886;28;20369;-75
2022/06/13 15:59:02;;;;;;;33.85;24.42;;;;;;;;;;6322698;28;20052;-74
2022/06/13 16:02:04;;;;;;;4.75;1.90;;;;;;;;;;6315632;28;20074;-77
2022/06/13 16:05:12;;;;;;;;;;;;;;;;;;6326609;28;20056;-78
2022/06/13 16:08:16;;;;;;;6.05;2.03;;;;;;;;;;6326788;28;19937;-78
2022/06/13 16:11:17;;;;;;;6.22;2.13;;;;;;;;;;6324922;28;20327;-79
2022/06/13 16:14:21;;;;;;;5.70;1.70;;;;;;;;;;6325852;28;20075;-78
2022/06/13 16:17:26;;;;;;;5.55;1.80;;;;;;;;;;6324440;28;20111;-77
2022/06/13 16:20:31;;;;;;;3.10;1.90;;;;;;;;;;6321085;27;20218;-80
2022/06/13 16:23:36;;;;;;;5.07;2.13;;;;;;;;;;6324807;28;20212;-78
2022/06/13 16:26:39;;;;;;;4.03;1.95;;;;;;;;;;6321734;28;20055;-77
2022/06/13 16:29:43;;;;;;;6.53;1.90;;;;;;;;;;6324234;28;20060;-77
2022/06/13 16:32:48;;;;;;;5.78;2.15;;;;;;;;;;6328133;28;20293;-77
2022/06/13 16:35:53;;;;;;;5.32;2.10;;;;;;;;;;6323066;28;20053;-78
2022/06/13 16:38:55;;;;;;;3.53;2.10;;;;;;;;;;6323478;28;20376;-76
2022/06/13 16:41:58;;;;;;;3.90;2.00;;;;;;;;;;6321205;28;20043;-77
2022/06/13 16:45:11;;;;;;;4.75;1.80;;;;;;;;;;6320701;28;20454;-78
2022/06/13 16:48:18;;;;;;;3.85;2.03;;;;;;;;;;6322945;28;20051;-77
2022/06/13 16:51:30;;;;;;;6.55;2.33;;;;;;;;;;6320481;28;20342;-77
2022/06/13 16:54:35;;;;;;;2.75;2.03;;;;;;;;;;6320643;28;20060;-78
2022/06/13 16:57:49;;;;;;;6.10;2.40;;;;;;;;;;6317985;28;20052;-76
2022/06/13 17:01:05;;;;;;;5.03;2.10;;;;;;;;;;6318762;28;20040;-77
2022/06/13 17:04:07;;;;;;;13.07;2.70;;;;;;;;;;6318960;28;20058;-78
2022/06/13 17:07:16;;;;;;;5.83;2.20;;;;;;;;;;6322400;27;20055;-77
2022/06/13 17:10:18;;;;;;;11.00;2.70;;;;;;;;;;6315423;28;20109;-80
2022/06/13 17:13:22;;;;;;;2.80;2.10;;;;;;;;;;6318994;28;20063;-77
2022/06/13 17:16:27;;;;;;;4.75;2.10;;;;;;;;;;6325505;28;20101;-77
2022/06/13 17:19:29;;;;;;;4.78;1.73;;;;;;;;;;6322171;28;20075;-76
2022/06/13 17:22:31;;;;;;;4.90;2.03;;;;;;;;;;6323189;28;20059;-75
2022/06/13 17:32:06;;;;;;;6.23;2.50;;;;;;;;;;6326317;28;20485;-76
2022/06/13 17:32:14;;;;;;;8.10;3.15;;;;;;;;;;6300154;28;20067;-79
2022/06/13 17:35:16;;;;;;;7.07;2.78;;;;;;;;;;6324300;28;20048;-78
2022/06/13 17:38:18;;;;;;;6.83;3.30;;;;;;;;;;6320896;28;20072;-77
2022/06/13 17:41:20;;;;;;;6.85;2.90;;;;;;;;;;6320711;28;20220;-78
2022/06/13 17:44:22;;;;;;;9.63;3.20;;;;;;;;;;6324918;28;20125;-76
2022/06/13 17:47:25;;;;;;;12.37;3.50;;;;;;;;;;6323879;28;20051;-75
2022/06/13 17:50:27;;;;;;;6.10;3.08;;;;;;;;;;6324399;28;20392;-76
2022/06/13 17:53:29;;;;;;;6.32;3.25;;;;;;;;;;6325954;28;20129;-76
2022/06/13 17:56:32;;;;;;;5.22;3.03;;;;;;;;;;6323546;28;20327;-76
2022/06/13 17:59:33;;;;;;;3.70;3.10;;;;;;;;;;6324977;28;20105;-76
2022/06/13 18:02:37;;;;;;;7.90;3.00;;;;;;;;;;6320071;28;20060;-75
2022/06/13 18:05:40;;;;;;;6.03;3.53;;;;;;;;;;6323811;28;20048;-77
2022/06/13 18:08:44;;;;;;;7.43;3.47;;;;;;;;;;6320743;28;20044;-77
2022/06/13 18:11:46;;;;;;;7.90;4.00;;;;;;;;;;6322716;28;20283;-77
2022/06/13 18:14:48;;;;;;;8.05;3.65;;;;;;;;;;6325329;28;20043;-78
2022/06/13 18:17:51;;;;;;;5.72;4.10;;;;;;;;;;6325695;28;20056;-77
2022/06/13 18:20:53;;;;;;;7.20;3.70;;;;;;;;;;6326174;28;20040;-76
2022/06/13 18:23:55;;;;;;;15.40;3.88;;;;;;;;;;6327596;28;20046;-76
2022/06/13 18:27:01;;;;;;;6.57;4.10;;;;;;;;;;6322040;28;20044;-78
2022/06/13 18:30:05;;;;;;;6.45;3.78;;;;;;;;;;6325792;28;20063;-79
2022/06/13 18:33:09;;;;;;;9.73;3.80;;;;;;;;;;6324524;28;20346;-80
2022/06/13 18:36:10;;;;;;;7.40;3.53;;;;;;;;;;6320107;28;20063;-78
2022/06/13 18:39:12;;;;;;;9.07;4.03;;;;;;;;;;6319804;28;20059;-78
2022/06/13 18:42:16;;;;;;;5.25;4.20;;;;;;;;;;6318977;28;20334;-77
2022/06/13 18:45:19;;;;;;;5.18;3.53;;;;;;;;;;6320049;28;20056;-79
2022/06/13 18:48:22;;;;;;;5.00;3.83;;;;;;;;;;6321525;28;20090;-79
2022/06/13 18:51:24;;;;;;;6.20;3.40;;;;;;;;;;6322136;28;20048;-78
2022/06/13 18:54:27;;;;;;;4.55;3.40;;;;;;;;;;6324513;28;20056;-77
2022/06/13 18:57:29;;;;;;;6.20;3.45;;;;;;;;;;6326737;28;20277;-77
2022/06/13 19:00:31;;;;;;;6.07;3.73;;;;;;;;;;6324880;28;20094;-78
2022/06/13 19:03:41;;;;;;;4.80;2.92;;;;;;;;;;6325847;28;20327;-78
2022/06/13 19:06:43;;;;;;;5.88;3.63;;;;;;;;;;6322306;28;20342;-78